createdAt,value
2019-04-11T00:00:31.375Z,98594.80
2019-04-11T00:01:46.937Z,98595.54
2019-04-11T00:02:51.141Z,98594.83
2019-04-11T00:03:59.860Z,98596.25
2019-04-11T00:05:08.499Z,98593.50
2019-04-11T00:06:17.260Z,98598.32
2019-04-11T00:07:25.584Z,98594.34
2019-04-11T00:08:35.513Z,98589.03
2019-04-11T00:09:44.935Z,98586.86
2019-04-11T00:10:53.545Z,98592.66
2019-04-11T00:12:02.056Z,98588.77
2019-04-11T00:13:19.793Z,98593.59
2019-04-11T00:14:20.002Z,98584.30
2019-04-11T00:15:28.763Z,98584.80
2019-04-11T00:16:37.357Z,98593.23
2019-04-11T00:17:46.016Z,98590.09
2019-04-11T00:18:54.737Z,98590.97
2019-04-11T00:20:02.787Z,98591.55
2019-04-11T00:21:10.825Z,98592.17
2019-04-11T00:22:19.472Z,98586.15
2019-04-11T00:23:27.768Z,98588.80
2019-04-11T00:24:36.693Z,98586.50
2019-04-11T00:25:44.804Z,98588.31
2019-04-11T00:26:52.805Z,98584.82
2019-04-11T00:28:01.582Z,98595.80
2019-04-11T00:29:10.136Z,98588.19
2019-04-11T00:30:19.830Z,98592.17
2019-04-11T00:31:28.564Z,98585.89
2019-04-11T00:32:37.885Z,98585.41
2019-04-11T00:33:46.652Z,98584.69
2019-04-11T00:34:55.310Z,98589.16
2019-04-11T00:36:04.198Z,98587.61
2019-04-11T00:37:12.766Z,98582.39
2019-04-11T00:38:21.440Z,98587.83
2019-04-11T00:39:29.971Z,98589.64
2019-04-11T00:40:39.440Z,98588.58
2019-04-11T00:41:48.269Z,98588.70
2019-04-11T00:42:56.787Z,98590.99
2019-04-11T00:44:06.369Z,98595.45
2019-04-11T00:45:15.896Z,98591.69
2019-04-11T00:46:24.592Z,98600.62
2019-04-11T00:47:33.166Z,98603.75
2019-04-11T00:48:41.829Z,98602.08
2019-04-11T00:49:50.460Z,98603.75
2019-04-11T00:50:59.319Z,98609.19
2019-04-11T00:52:08.677Z,98608.70
2019-04-11T00:53:16.742Z,98610.88
2019-04-11T00:54:24.834Z,98606.66
2019-04-11T00:55:32.938Z,98600.73
2019-04-11T00:56:42.276Z,98614.84
2019-04-11T00:57:50.352Z,98607.98
2019-04-11T00:58:58.439Z,98616.55
2019-04-11T01:00:09.321Z,98612.92
2019-04-11T01:01:17.701Z,98610.14
2019-04-11T01:02:26.319Z,98612.31
2019-04-11T01:03:35.921Z,98611.34
2019-04-11T01:04:45.338Z,98612.56
2019-04-11T01:05:53.996Z,98610.76
2019-04-11T01:07:03.109Z,98623.89
2019-04-11T01:08:11.533Z,98617.88
2019-04-11T01:09:20.108Z,98620.40
2019-04-11T01:10:28.324Z,98622.08
2019-04-11T01:11:37.878Z,98628.59
2019-04-11T01:12:46.933Z,98622.80
2019-04-11T01:13:55.755Z,98618.73
2019-04-11T01:15:04.965Z,98623.06
2019-04-11T01:16:17.852Z,98622.09
2019-04-11T01:17:26.043Z,98626.56
2019-04-11T01:18:34.511Z,98621.25
2019-04-11T01:19:42.764Z,98625.11
2019-04-11T01:20:51.515Z,98620.41
2019-04-11T01:22:01.162Z,98623.64
2019-04-11T01:23:09.379Z,98618.73
2019-04-11T01:24:17.773Z,98626.78
2019-04-11T01:25:25.970Z,98624.25
2019-04-11T01:26:35.122Z,98620.40
2019-04-11T01:27:43.796Z,98627.52
2019-04-11T01:28:52.535Z,98631.98
2019-04-11T01:30:02.364Z,98617.03
2019-04-11T01:31:15.629Z,98627.52
2019-04-11T01:32:24.454Z,98619.91
2019-04-11T01:33:32.428Z,98623.53
2019-04-11T01:34:40.552Z,98619.30
2019-04-11T01:35:49.819Z,98619.42
2019-04-11T01:36:59.528Z,98615.44
2019-04-11T01:38:08.289Z,98621.35
2019-04-11T01:39:29.953Z,98625.08
2019-04-11T01:40:38.267Z,98627.16
2019-04-11T01:41:46.754Z,98631.37
2019-04-11T01:42:55.504Z,98633.66
2019-04-11T01:44:05.895Z,98633.78
2019-04-11T01:45:14.830Z,98641.60
2019-04-11T01:46:22.816Z,98638.11
2019-04-11T01:47:35.981Z,98640.98
2019-04-11T01:48:50.004Z,98637.09
2019-04-11T01:49:58.728Z,98641.07
2019-04-11T01:51:07.544Z,98638.55
2019-04-11T01:52:15.423Z,98635.30
2019-04-11T01:53:24.697Z,98629.63
2019-04-11T01:54:32.717Z,98635.52
2019-04-11T01:55:40.944Z,98634.08
2019-04-11T01:56:49.524Z,98633.94
2019-04-11T01:57:58.283Z,98637.80
2019-04-11T01:59:06.992Z,98633.08
2019-04-11T02:00:18.152Z,98637.05
2019-04-11T02:01:30.670Z,98641.30
2019-04-11T02:02:42.339Z,98636.08
2019-04-11T02:03:55.321Z,98638.38
2019-04-11T02:05:05.268Z,98634.88
2019-04-11T02:06:13.888Z,98643.44
2019-04-11T02:07:22.597Z,98645.25
2019-04-11T02:08:31.297Z,98643.80
2019-04-11T02:09:40.155Z,98651.27
2019-04-11T02:10:48.740Z,98645.97
2019-04-11T02:11:56.762Z,98640.66
2019-04-11T02:13:05.712Z,98644.53
2019-04-11T02:14:16.380Z,98644.73
2019-04-11T02:15:25.272Z,98644.37
2019-04-11T02:16:34.799Z,98645.95
2019-04-11T02:17:43.249Z,98650.86
2019-04-11T02:18:51.920Z,98650.11
2019-04-11T02:20:00.683Z,98650.48
2019-04-11T02:21:09.406Z,98651.53
2019-04-11T02:22:24.981Z,98652.25
2019-04-11T02:23:51.140Z,98660.20
2019-04-11T02:25:00.821Z,98654.27
2019-04-11T02:26:16.783Z,98660.53
2019-04-11T02:27:27.342Z,98658.37
2019-04-11T02:28:35.358Z,98656.80
2019-04-11T02:29:44.731Z,98659.57
2019-04-11T02:30:56.235Z,98660.89
2019-04-11T02:32:05.497Z,98657.13
2019-04-11T02:33:15.880Z,98662.67
2019-04-11T02:34:23.682Z,98658.81
2019-04-11T02:35:31.703Z,98666.36
2019-04-11T02:36:40.541Z,98663.84
2019-04-11T02:37:51.983Z,98665.92
2019-04-11T02:39:05.779Z,98668.93
2019-04-11T02:40:11.145Z,98663.15
2019-04-11T02:41:20.988Z,98667.48
2019-04-11T02:42:30.718Z,98669.41
2019-04-11T02:43:42.144Z,98667.16
2019-04-11T02:45:05.924Z,98670.65
2019-04-11T02:46:11.755Z,98674.63
2019-04-11T02:47:13.605Z,98669.05
2019-04-11T02:48:20.374Z,98666.16
2019-04-11T02:49:28.305Z,98665.44
2019-04-11T02:50:38.694Z,98667.33
2019-04-11T02:51:47.326Z,98666.00
2019-04-11T02:52:58.476Z,98669.50
2019-04-11T02:54:07.748Z,98664.59
2019-04-11T02:55:17.107Z,98669.77
2019-04-11T02:56:25.815Z,98667.00
2019-04-11T02:57:36.336Z,98667.73
2019-04-11T02:58:46.329Z,98666.77
2019-04-11T02:59:56.031Z,98668.84
2019-04-11T03:01:06.981Z,98667.69
2019-04-11T03:02:17.555Z,98665.52
2019-04-11T03:03:25.317Z,98669.25
2019-04-11T03:04:34.754Z,98673.83
2019-04-11T03:05:44.206Z,98662.39
2019-04-11T03:06:53.236Z,98666.48
2019-04-11T03:08:06.615Z,98669.97
2019-04-11T03:09:13.163Z,98667.81
2019-04-11T03:10:21.430Z,98666.36
2019-04-11T03:11:30.384Z,98664.92
2019-04-11T03:12:40.536Z,98670.66
2019-04-11T03:13:54.693Z,98666.92
2019-04-11T03:15:22.744Z,98670.02
2019-04-11T03:16:29.620Z,98672.02
2019-04-11T03:17:28.794Z,98678.52
2019-04-11T03:18:53.441Z,98668.36
2019-04-11T03:19:58.163Z,98673.89
2019-04-11T03:20:57.774Z,98675.30
2019-04-11T03:22:03.488Z,98676.27
2019-04-11T03:23:14.529Z,98679.03
2019-04-11T03:24:24.183Z,98676.98
2019-04-11T03:25:33.015Z,98676.98
2019-04-11T03:26:43.395Z,98687.20
2019-04-11T03:27:53.753Z,98686.97
2019-04-11T03:29:03.601Z,98689.73
2019-04-11T03:30:16.358Z,98690.21
2019-04-11T03:33:17.324Z,98694.66
2019-04-11T03:34:24.276Z,98696.83
2019-04-11T03:35:45.760Z,98700.80
2019-04-11T03:37:38.655Z,98700.20
2019-04-11T03:39:02.504Z,98690.94
2019-04-11T03:40:11.446Z,98689.98
2019-04-11T03:41:20.320Z,98685.77
2019-04-11T03:42:29.960Z,98699.11
2019-04-11T03:43:34.706Z,98695.59
2019-04-11T03:44:37.555Z,98701.37
2019-04-11T03:46:01.430Z,98701.48
2019-04-11T03:47:08.353Z,98704.61
2019-04-11T03:48:12.366Z,98710.38
2019-04-11T03:49:20.989Z,98702.92
2019-04-11T03:50:25.156Z,98699.55
2019-04-11T03:51:31.329Z,98705.88
2019-04-11T03:52:40.785Z,98707.55
2019-04-11T03:54:05.129Z,98710.03
2019-04-11T03:55:15.288Z,98703.64
2019-04-11T03:56:24.603Z,98708.77
2019-04-11T03:57:34.316Z,98704.27
2019-04-11T03:58:43.763Z,98709.42
2019-04-11T03:59:52.358Z,98711.34
2019-04-11T04:01:03.439Z,98713.33
2019-04-11T04:02:12.969Z,98712.60
2019-04-11T04:03:22.479Z,98712.01
2019-04-11T04:04:30.891Z,98718.51
2019-04-11T04:05:39.714Z,98717.19
2019-04-11T04:06:49.904Z,98718.51
2019-04-11T04:08:00.145Z,98723.97
2019-04-11T04:09:10.762Z,98728.19
2019-04-11T04:10:20.528Z,98720.25
2019-04-11T04:11:31.611Z,98726.03
2019-04-11T04:12:40.302Z,98718.20
2019-04-11T04:13:55.782Z,98724.93
2019-04-11T04:15:36.501Z,98723.61
2019-04-11T04:16:38.564Z,98723.80
2019-04-11T04:17:45.483Z,98722.70
2019-04-11T04:18:56.518Z,98726.36
2019-04-11T04:20:11.040Z,98727.39
2019-04-11T04:21:22.550Z,98729.90
2019-04-11T04:22:50.028Z,98729.64
2019-04-11T04:24:01.386Z,98728.52
2019-04-11T04:25:10.291Z,98728.81
2019-04-11T04:26:19.233Z,98729.88
2019-04-11T04:27:30.349Z,98730.14
2019-04-11T04:28:40.669Z,98736.02
2019-04-11T04:29:51.854Z,98730.72
2019-04-11T04:30:58.057Z,98728.45
2019-04-11T04:32:08.255Z,98726.28
2019-04-11T04:33:17.099Z,98736.13
2019-04-11T04:34:26.102Z,98736.60
2019-04-11T04:35:36.206Z,98738.00
2019-04-11T04:36:44.125Z,98745.09
2019-04-11T04:37:54.409Z,98742.52
2019-04-11T04:39:04.184Z,98745.76
2019-04-11T04:40:26.932Z,98747.30
2019-04-11T04:41:35.116Z,98753.69
2019-04-11T04:42:40.236Z,98751.05
2019-04-11T04:43:44.461Z,98753.50
2019-04-11T04:44:53.866Z,98757.28
2019-04-11T04:46:20.396Z,98761.80
2019-04-11T04:47:21.040Z,98760.62
2019-04-11T04:48:24.340Z,98760.14
2019-04-11T04:49:32.334Z,98763.91
2019-04-11T04:50:42.193Z,98763.33
2019-04-11T04:51:51.147Z,98764.42
2019-04-11T04:53:00.921Z,98762.06
2019-04-11T04:54:10.090Z,98760.89
2019-04-11T04:55:19.412Z,98766.95
2019-04-11T04:56:31.599Z,98769.38
2019-04-11T04:57:37.888Z,98771.79
2019-04-11T04:58:46.719Z,98767.82
2019-04-11T04:59:56.351Z,98763.86
2019-04-11T05:01:06.817Z,98768.41
2019-04-11T05:02:15.215Z,98765.40
2019-04-11T05:03:24.534Z,98769.84
2019-04-11T05:04:33.765Z,98776.09
2019-04-11T05:05:42.519Z,98779.22
2019-04-11T05:06:52.915Z,98777.12
2019-04-11T05:08:02.736Z,98775.44
2019-04-11T05:09:12.833Z,98777.24
2019-04-11T05:10:22.172Z,98778.09
2019-04-11T05:11:30.661Z,98776.94
2019-04-11T05:12:38.924Z,98780.54
2019-04-11T05:13:49.258Z,98775.61
2019-04-11T05:14:56.407Z,98775.61
2019-04-11T05:16:16.377Z,98777.67
2019-04-11T05:17:14.947Z,98774.55
2019-04-11T05:18:23.714Z,98780.69
2019-04-11T05:19:32.068Z,98774.55
2019-04-11T05:20:40.723Z,98777.05
2019-04-11T05:21:49.828Z,98778.00
2019-04-11T05:22:58.188Z,98775.08
2019-04-11T05:24:06.317Z,98774.34
2019-04-11T05:25:22.799Z,98771.52
2019-04-11T05:26:31.407Z,98773.43
2019-04-11T05:27:39.817Z,98777.03
2019-04-11T05:28:48.825Z,98782.14
2019-04-11T05:29:57.233Z,98783.47
2019-04-11T05:31:06.047Z,98783.58
2019-04-11T05:32:14.148Z,98782.00
2019-04-11T05:33:23.203Z,98784.83
2019-04-11T05:34:31.440Z,98787.88
2019-04-11T05:35:39.601Z,98779.94
2019-04-11T05:36:47.664Z,98779.46
2019-04-11T05:37:55.821Z,98783.50
2019-04-11T05:39:06.632Z,98788.31
2019-04-11T05:40:15.272Z,98787.88
2019-04-11T05:41:24.616Z,98791.07
2019-04-11T05:42:33.389Z,98786.84
2019-04-11T05:43:41.853Z,98787.32
2019-04-11T05:44:51.455Z,98788.72
2019-04-11T05:46:00.239Z,98787.88
2019-04-11T05:47:09.016Z,98788.72
2019-04-11T05:48:30.703Z,98783.91
2019-04-11T05:49:47.510Z,98783.03
2019-04-11T05:50:56.250Z,98788.80
2019-04-11T05:52:06.350Z,98790.13
2019-04-11T05:53:14.207Z,98789.75
2019-04-11T05:54:22.302Z,98789.02
2019-04-11T05:55:32.112Z,98794.67
2019-04-11T05:56:40.203Z,98789.39
2019-04-11T05:57:48.388Z,98788.17
2019-04-11T05:58:57.884Z,98791.41
2019-04-11T06:00:09.823Z,98789.23
2019-04-11T06:01:22.486Z,98791.48
2019-04-11T06:02:30.230Z,98791.88
2019-04-11T06:03:40.999Z,98799.12
2019-04-11T06:04:55.923Z,98799.85
2019-04-11T06:06:10.844Z,98793.72
2019-04-11T06:07:20.975Z,98800.14
2019-04-11T06:08:30.747Z,98806.68
2019-04-11T06:09:41.676Z,98804.03
2019-04-11T06:10:52.527Z,98802.23
2019-04-11T06:12:05.298Z,98800.91
2019-04-11T06:13:20.897Z,98801.76
2019-04-11T06:14:45.669Z,98806.68
2019-04-11T06:15:56.713Z,98804.95
2019-04-11T06:17:07.281Z,98806.39
2019-04-11T06:18:37.400Z,98801.55
2019-04-11T06:19:43.863Z,98807.78
2019-04-11T06:21:05.397Z,98808.38
2019-04-11T06:22:14.817Z,98804.52
2019-04-11T06:23:23.476Z,98808.48
2019-04-11T06:24:42.634Z,98804.14
2019-04-11T06:25:53.356Z,98809.98
2019-04-11T06:27:01.421Z,98812.95
2019-04-11T06:28:11.748Z,98810.60
2019-04-11T06:29:26.233Z,98814.20
2019-04-11T06:30:40.196Z,98813.94
2019-04-11T06:32:06.120Z,98812.77
2019-04-11T06:33:16.495Z,98818.42
2019-04-11T06:34:26.929Z,98808.62
2019-04-11T06:35:52.658Z,98807.19
2019-04-11T06:37:13.794Z,98811.78
2019-04-11T06:38:25.475Z,98812.45
2019-04-11T06:39:51.577Z,98813.41
2019-04-11T06:41:01.985Z,98810.39
2019-04-11T06:42:25.434Z,98817.92
2019-04-11T06:43:44.561Z,98821.04
2019-04-11T06:44:57.048Z,98815.75
2019-04-11T06:46:07.095Z,98822.47
2019-04-11T06:47:34.592Z,98818.50
2019-04-11T06:49:02.625Z,98814.06
2019-04-11T06:50:17.354Z,98819.45
2019-04-11T06:51:30.271Z,98821.18
2019-04-11T06:52:41.212Z,98821.77
2019-04-11T06:53:52.601Z,98824.41
2019-04-11T06:55:06.713Z,98824.98
2019-04-11T06:56:23.240Z,98822.23
2019-04-11T06:57:36.272Z,98827.05
2019-04-11T06:58:52.008Z,98824.98
2019-04-11T07:00:00.920Z,98826.86
2019-04-11T07:01:13.989Z,98826.60
2019-04-11T07:02:25.028Z,98830.67
2019-04-11T07:03:34.822Z,98826.81
2019-04-11T07:04:44.594Z,98825.38
2019-04-11T07:05:53.196Z,98830.30
2019-04-11T07:07:04.396Z,98830.85
2019-04-11T07:08:13.813Z,98832.17
2019-04-11T07:09:28.704Z,98833.23
2019-04-11T07:10:38.722Z,98827.94
2019-04-11T07:11:54.393Z,98832.65
2019-04-11T07:13:04.184Z,98824.83
2019-04-11T07:14:33.223Z,98827.47
2019-04-11T07:17:34.345Z,98831.64
2019-04-11T07:18:44.246Z,98837.94
2019-04-11T07:20:10.934Z,98836.14
2019-04-11T07:21:19.402Z,98833.50
2019-04-11T07:22:45.085Z,98840.88
2019-04-11T07:24:11.796Z,98842.09
2019-04-11T07:25:22.379Z,98841.03
2019-04-11T07:26:33.008Z,98840.38
2019-04-11T07:27:42.977Z,98844.60
2019-04-11T07:28:54.273Z,98845.45
2019-04-11T07:30:22.753Z,98846.40
2019-04-11T07:31:44.192Z,98842.91
2019-04-11T07:32:55.002Z,98850.63
2019-04-11T07:34:06.197Z,98847.43
2019-04-11T07:35:33.990Z,98851.29
2019-04-11T07:36:44.330Z,98851.55
2019-04-11T07:37:53.334Z,98855.52
2019-04-11T07:39:07.896Z,98847.69
2019-04-11T07:40:18.449Z,98852.40
2019-04-11T07:41:39.037Z,98852.98
2019-04-11T07:42:53.053Z,98849.67
2019-04-11T07:44:02.396Z,98852.05
2019-04-11T07:45:29.905Z,98852.53
2019-04-11T07:46:42.984Z,98856.60
2019-04-11T07:47:56.965Z,98856.02
2019-04-11T07:49:05.980Z,98859.14
2019-04-11T07:50:16.781Z,98854.55
2019-04-11T07:51:25.356Z,98860.38
2019-04-11T07:52:35.930Z,98864.56
2019-04-11T07:53:48.067Z,98862.86
2019-04-11T07:54:57.004Z,98862.20
2019-04-11T07:56:07.697Z,98863.52
2019-04-11T07:57:30.626Z,98864.84
2019-04-11T07:58:46.385Z,98866.53
2019-04-11T07:59:54.091Z,98864.73
2019-04-11T08:01:14.718Z,98867.30
2019-04-11T08:02:40.907Z,98865.98
2019-04-11T08:04:06.011Z,98865.05
2019-04-11T08:05:32.434Z,98868.06
2019-04-11T08:06:56.307Z,98868.24
2019-04-11T08:08:09.152Z,98861.95
2019-04-11T08:09:27.498Z,98866.50
2019-04-11T08:10:46.090Z,98867.72
2019-04-11T08:11:56.175Z,98864.70
2019-04-11T08:13:05.975Z,98863.85
2019-04-11T08:14:16.169Z,98866.09
2019-04-11T08:15:42.536Z,98867.99
2019-04-11T08:17:09.349Z,98866.88
2019-04-11T08:18:35.344Z,98869.23
2019-04-11T08:19:55.375Z,98869.23
2019-04-11T08:21:21.878Z,98869.80
2019-04-11T08:22:37.532Z,98875.94
2019-04-11T08:23:47.758Z,98868.86
2019-04-11T08:25:05.037Z,98870.65
2019-04-11T08:26:30.776Z,98873.19
2019-04-11T08:28:00.242Z,98877.16
2019-04-11T08:29:08.985Z,98872.92
2019-04-11T08:30:14.922Z,98876.04
2019-04-11T08:31:28.926Z,98870.17
2019-04-11T08:32:38.521Z,98872.55
2019-04-11T08:33:46.786Z,98871.33
2019-04-11T08:35:13.297Z,98877.94
2019-04-11T08:36:24.159Z,98870.48
2019-04-11T08:37:36.264Z,98870.56
2019-04-11T08:38:44.757Z,98874.52
2019-04-11T08:39:53.924Z,98875.77
2019-04-11T08:41:03.082Z,98871.70
2019-04-11T08:42:21.302Z,98870.02
2019-04-11T08:43:37.310Z,98876.04
2019-04-11T08:44:45.521Z,98877.26
2019-04-11T08:46:06.619Z,98866.98
2019-04-11T08:47:16.145Z,98871.87
2019-04-11T08:48:24.687Z,98869.43
2019-04-11T08:49:40.146Z,98875.30
2019-04-11T08:50:50.429Z,98881.91
2019-04-11T08:52:00.143Z,98882.55
2019-04-11T08:53:18.461Z,98882.18
2019-04-11T08:54:26.317Z,98887.36
2019-04-11T08:55:47.659Z,98888.68
2019-04-11T08:56:45.903Z,98893.42
2019-04-11T08:57:56.115Z,98890.30
2019-04-11T08:59:11.382Z,98882.27
2019-04-11T09:00:19.421Z,98888.87
2019-04-11T09:01:27.731Z,98889.05
2019-04-11T09:02:37.405Z,98891.22
2019-04-11T09:04:07.398Z,98894.91
2019-04-11T09:05:18.234Z,98899.72
2019-04-11T09:06:28.336Z,98895.39
2019-04-11T09:07:41.476Z,98897.66
2019-04-11T09:09:09.073Z,98895.97
2019-04-11T09:10:35.929Z,98897.77
2019-04-11T09:11:48.992Z,98896.52
2019-04-11T09:12:58.811Z,98896.61
2019-04-11T09:14:13.716Z,98899.25
2019-04-11T09:15:39.577Z,98900.47
2019-04-11T09:16:54.069Z,98901.72
2019-04-11T09:18:06.151Z,98899.93
2019-04-11T09:19:14.678Z,98905.69
2019-04-11T09:20:31.801Z,98902.67
2019-04-11T09:21:58.332Z,98906.23
2019-04-11T09:23:06.496Z,98898.52
2019-04-11T09:24:16.727Z,98903.05
2019-04-11T09:25:41.820Z,98903.59
2019-04-11T09:27:08.704Z,98900.03
2019-04-11T09:28:19.567Z,98900.41
2019-04-11T09:29:35.121Z,98898.31
2019-04-11T09:31:06.230Z,98907.19
2019-04-11T09:32:20.461Z,98898.52
2019-04-11T09:33:33.152Z,98905.70
2019-04-11T09:34:44.041Z,98903.05
2019-04-11T09:35:59.757Z,98906.71
2019-04-11T09:37:12.410Z,98903.22
2019-04-11T09:38:20.833Z,98903.59
2019-04-11T09:39:39.334Z,98904.37
2019-04-11T09:40:50.133Z,98903.42
2019-04-11T09:42:20.214Z,98907.19
2019-04-11T09:43:31.957Z,98903.22
2019-04-11T09:44:41.805Z,98909.72
2019-04-11T09:46:01.954Z,98910.02
2019-04-11T09:47:22.246Z,98904.27
2019-04-11T09:48:38.031Z,98913.52
2019-04-11T09:49:57.975Z,98907.28
2019-04-11T09:51:11.496Z,98912.47
2019-04-11T09:52:21.346Z,98913.98
2019-04-11T09:53:30.325Z,98908.70
2019-04-11T09:54:52.633Z,98909.45
2019-04-11T09:56:00.588Z,98908.49
2019-04-11T09:57:28.955Z,98913.67
2019-04-11T09:58:37.913Z,98907.48
2019-04-11T09:59:53.903Z,98912.28
2019-04-11T10:01:12.505Z,98913.23
2019-04-11T10:02:20.967Z,98911.51
2019-04-11T10:03:30.718Z,98906.22
2019-04-11T10:04:41.697Z,98908.12
2019-04-11T10:05:54.642Z,98908.49
2019-04-11T10:07:21.711Z,98913.41
2019-04-11T10:08:33.067Z,98909.81
2019-04-11T10:09:48.586Z,98912.83
2019-04-11T10:11:09.987Z,98911.98
2019-04-11T10:12:36.118Z,98911.81
2019-04-11T10:13:55.388Z,98911.34
2019-04-11T10:15:05.101Z,98909.54
2019-04-11T10:16:15.858Z,98911.70
2019-04-11T10:17:26.303Z,98911.13
2019-04-11T10:18:45.284Z,98905.47
2019-04-11T10:19:54.132Z,98912.92
2019-04-11T10:21:02.482Z,98910.76
2019-04-11T10:22:13.123Z,98906.22
2019-04-11T10:23:23.027Z,98909.33
2019-04-11T10:24:38.886Z,98913.40
2019-04-11T10:25:47.634Z,98913.03
2019-04-11T10:26:58.460Z,98907.74
2019-04-11T10:28:09.447Z,98906.22
2019-04-11T10:29:19.261Z,98909.63
2019-04-11T10:30:33.541Z,98909.05
2019-04-11T10:31:44.364Z,98913.66
2019-04-11T10:32:55.316Z,98911.02
2019-04-11T10:34:43.846Z,98911.69
2019-04-11T10:36:12.922Z,98911.95
2019-04-11T10:37:47.707Z,98908.56
2019-04-11T10:39:23.378Z,98918.17
2019-04-11T10:40:56.660Z,98913.95
2019-04-11T10:42:12.973Z,98915.06
2019-04-11T10:43:22.385Z,98906.86
2019-04-11T10:44:38.933Z,98908.84
2019-04-11T10:45:59.232Z,98907.14
2019-04-11T10:47:09.937Z,98911.59
2019-04-11T10:48:32.581Z,98918.09
2019-04-11T10:49:36.585Z,98917.14
2019-04-11T10:50:46.635Z,98911.41
2019-04-11T10:52:00.344Z,98922.25
2019-04-11T10:53:08.958Z,98924.69
2019-04-11T10:54:16.897Z,98917.13
2019-04-11T10:55:27.375Z,98922.23
2019-04-11T10:56:53.685Z,98922.23
2019-04-11T10:58:02.542Z,98921.07
2019-04-11T10:59:13.245Z,98922.22
2019-04-11T11:00:37.552Z,98927.40
2019-04-11T11:02:04.381Z,98924.75
2019-04-11T11:03:14.270Z,98920.31
2019-04-11T11:04:23.992Z,98918.52
2019-04-11T11:05:34.618Z,98925.42
2019-04-11T11:06:45.093Z,98923.52
2019-04-11T11:07:55.439Z,98922.84
2019-04-11T11:09:03.942Z,98924.83
2019-04-11T11:10:13.883Z,98927.84
2019-04-11T11:11:40.763Z,98922.34
2019-04-11T11:13:09.715Z,98924.06
2019-04-11T11:14:22.779Z,98921.31
2019-04-11T11:15:33.791Z,98920.77
2019-04-11T11:16:46.994Z,98924.99
2019-04-11T11:18:27.210Z,98924.63
2019-04-11T11:19:40.927Z,98923.97
2019-04-11T11:20:41.499Z,98930.10
2019-04-11T11:21:47.848Z,98925.29
2019-04-11T11:22:56.052Z,98928.78
2019-04-11T11:24:22.218Z,98924.92
2019-04-11T11:25:39.245Z,98928.41
2019-04-11T11:26:47.667Z,98934.91
2019-04-11T11:27:55.823Z,98933.70
2019-04-11T11:29:14.642Z,98930.47
2019-04-11T11:30:31.827Z,98931.69
2019-04-11T11:31:42.781Z,98928.02
2019-04-11T11:32:51.754Z,98934.41
2019-04-11T11:33:59.938Z,98935.89
2019-04-11T11:35:10.774Z,98933.65
2019-04-11T11:36:32.074Z,98933.33
2019-04-11T11:37:49.266Z,98939.83
2019-04-11T11:39:17.449Z,98937.84
2019-04-11T11:40:44.693Z,98933.52
2019-04-11T11:42:10.664Z,98931.34
2019-04-11T11:43:21.146Z,98936.64
2019-04-11T11:44:34.988Z,98932.77
2019-04-11T11:45:51.764Z,98939.94
2019-04-11T11:47:15.509Z,98929.47
2019-04-11T11:48:39.716Z,98929.95
2019-04-11T11:49:55.638Z,98934.28
2019-04-11T11:51:01.203Z,98938.98
2019-04-11T11:52:31.904Z,98936.27
2019-04-11T11:53:37.166Z,98931.72
2019-04-11T11:54:46.426Z,98935.47
2019-04-11T11:55:55.722Z,98934.63
2019-04-11T11:57:06.540Z,98937.16
2019-04-11T11:58:31.399Z,98934.91
2019-04-11T11:59:41.302Z,98940.20
2019-04-11T12:00:53.889Z,98937.16
2019-04-11T12:02:02.331Z,98937.16
2019-04-11T12:03:12.901Z,98934.14
2019-04-11T12:04:39.354Z,98938.48
2019-04-11T12:05:51.887Z,98938.95
2019-04-11T12:07:03.727Z,98937.92
2019-04-11T12:08:15.357Z,98936.98
2019-04-11T12:09:32.089Z,98937.71
2019-04-11T12:10:42.011Z,98933.74
2019-04-11T12:11:55.513Z,98944.14
2019-04-11T12:13:13.342Z,98934.03
2019-04-11T12:14:28.100Z,98938.08
2019-04-11T12:15:55.761Z,98930.98
2019-04-11T12:17:06.712Z,98933.55
2019-04-11T12:18:32.941Z,98935.25
2019-04-11T12:19:52.367Z,98931.65
2019-04-11T12:20:57.155Z,98929.73
2019-04-11T12:22:04.325Z,98934.84
2019-04-11T12:23:26.126Z,98940.51
2019-04-11T12:24:45.100Z,98938.70
2019-04-11T12:25:53.581Z,98933.13
2019-04-11T12:27:13.218Z,98932.39
2019-04-11T12:28:23.904Z,98938.41
2019-04-11T12:29:32.249Z,98936.62
2019-04-11T12:30:40.332Z,98937.50
2019-04-11T12:31:50.238Z,98939.55
2019-04-11T12:32:59.222Z,98940.51
2019-04-11T12:34:26.030Z,98936.54
2019-04-11T12:35:52.672Z,98936.54
2019-04-11T12:37:02.114Z,98936.06
2019-04-11T12:38:09.963Z,98937.86
2019-04-11T12:39:28.964Z,98935.69
2019-04-11T12:40:55.011Z,98936.54
2019-04-11T12:42:13.472Z,98931.61
2019-04-11T12:43:21.763Z,98933.30
2019-04-11T12:44:30.368Z,98934.89
2019-04-11T12:45:56.308Z,98938.19
2019-04-11T12:47:21.076Z,98939.30
2019-04-11T12:48:30.832Z,98927.75
2019-04-11T12:49:38.500Z,98928.71
2019-04-11T12:51:01.525Z,98924.73
2019-04-11T12:52:24.543Z,98926.91
2019-04-11T12:53:32.571Z,98928.23
2019-04-11T12:54:42.263Z,98927.67
2019-04-11T12:55:55.123Z,98931.91
2019-04-11T12:57:15.095Z,98926.61
2019-04-11T12:58:27.413Z,98924.44
2019-04-11T12:59:35.511Z,98929.08
2019-04-11T13:01:04.083Z,98922.09
2019-04-11T13:02:20.052Z,98926.28
2019-04-11T13:03:29.502Z,98936.88
2019-04-11T13:04:37.952Z,98934.70
2019-04-11T13:05:47.612Z,98932.53
2019-04-11T13:07:13.976Z,98929.88
2019-04-11T13:08:39.966Z,98934.34
2019-04-11T13:09:53.096Z,98937.34
2019-04-11T13:11:01.251Z,98927.86
2019-04-11T13:12:26.223Z,98923.89
2019-04-11T13:13:52.012Z,98930.03
2019-04-11T13:15:08.791Z,98929.08
2019-04-11T13:16:17.099Z,98927.97
2019-04-11T13:17:31.002Z,98922.68
2019-04-11T13:18:57.281Z,98931.58
2019-04-11T13:20:14.815Z,98927.61
2019-04-11T13:21:27.599Z,98927.50
2019-04-11T13:22:35.490Z,98927.39
2019-04-11T13:23:55.622Z,98925.50
2019-04-11T13:25:09.176Z,98925.50
2019-04-11T13:26:35.377Z,98931.91
2019-04-11T13:27:44.838Z,98929.26
2019-04-11T13:29:10.593Z,98934.33
2019-04-11T13:30:21.709Z,98930.36
2019-04-11T13:31:40.641Z,98932.38
2019-04-11T13:32:50.181Z,98933.34
2019-04-11T13:33:59.794Z,98934.30
2019-04-11T13:35:18.132Z,98936.09
2019-04-11T13:36:44.267Z,98942.91
2019-04-11T13:37:56.936Z,98931.58
2019-04-11T13:39:06.740Z,98933.93
2019-04-11T13:40:23.368Z,98941.98
2019-04-11T13:41:31.077Z,98936.43
2019-04-11T13:42:56.904Z,98938.41
2019-04-11T13:44:06.849Z,98935.98
2019-04-11T13:45:15.531Z,98941.65
2019-04-11T13:46:26.394Z,98938.05
2019-04-11T13:47:40.355Z,98941.46
2019-04-11T13:48:54.119Z,98944.11
2019-04-11T13:50:04.106Z,98937.09
2019-04-11T13:51:13.908Z,98945.51
2019-04-11T13:52:24.267Z,98941.54
2019-04-11T13:53:50.122Z,98941.65
2019-04-11T13:55:15.151Z,98942.39
2019-04-11T13:56:25.386Z,98944.55
2019-04-11T13:57:51.234Z,98945.51
2019-04-11T13:59:01.198Z,98945.98
2019-04-11T14:00:27.795Z,98946.36
2019-04-11T14:01:37.398Z,98942.86
2019-04-11T14:02:51.108Z,98944.00
2019-04-11T14:04:08.985Z,98941.14
2019-04-11T14:05:28.261Z,98948.48
2019-04-11T14:06:36.237Z,98944.81
2019-04-11T14:07:45.828Z,98945.55
2019-04-11T14:08:55.549Z,98950.73
2019-04-11T14:10:05.400Z,98944.88
2019-04-11T14:11:17.706Z,98947.61
2019-04-11T14:12:26.365Z,98952.05
2019-04-11T14:13:36.042Z,98947.61
2019-04-11T14:14:44.372Z,98955.47
2019-04-11T14:16:10.743Z,98952.23
2019-04-11T14:17:23.438Z,98946.95
2019-04-11T14:18:33.359Z,98944.48
2019-04-11T14:19:56.425Z,98943.75